Time;durP1;ratioP1;P1;durP2;ratioP2;P2;SDS_P1;SDS_P2;PMS_P1;PMS_P2;Temp;Humidity;BMP_temperature;BMP_pressure;BME280_temperature;BME280_humidity;BME280_pressure;Samples;Min_cycle;Max_cycle;Signal;HPM_P1;HPM_P2
2023/11/17 00:00:25;;;;;;;9.80;7.13;;;;;;;8.50;62.21;94650.47;4206155;28;20056;-69
2023/11/17 00:02:27;;;;;;;11.52;7.45;;;;;;;8.54;62.12;94651.81;4205936;28;20151;-69
2023/11/17 00:04:29;;;;;;;10.52;7.13;;;;;;;8.55;61.55;94643.00;4191880;28;20078;-68
2023/11/17 00:06:33;;;;;;;13.68;7.53;;;;;;;8.54;61.54;94641.34;4196450;28;20458;-70
2023/11/17 00:08:35;;;;;;;;;;;;;;;8.53;61.29;94639.72;4192198;28;20072;-69
2023/11/17 00:10:38;;;;;;;9.05;7.15;;;;;;;8.53;61.64;94635.31;4184565;28;20299;-70
2023/11/17 00:12:41;;;;;;;13.00;7.28;;;;;;;8.52;61.70;94627.66;4206672;28;20036;-70
2023/11/17 00:14:43;;;;;;;15.27;7.65;;;;;;;8.49;61.35;94628.75;4205291;28;20052;-67
2023/11/17 00:16:45;;;;;;;11.27;6.78;;;;;;;8.49;62.24;94628.75;4212890;28;20501;-67
2023/11/17 00:18:47;;;;;;;11.60;7.70;;;;;;;8.49;61.49;94633.16;4208233;28;20056;-67
2023/11/17 00:20:52;;;;;;;11.05;6.68;;;;;;;8.40;61.82;94632.22;4210420;28;20147;-69
2023/11/17 00:22:54;;;;;;;13.00;7.78;;;;;;;8.41;61.95;94626.09;4223838;28;20039;-69
2023/11/17 00:24:56;;;;;;;12.02;7.10;;;;;;;8.44;61.90;94625.78;4206586;28;20048;-70
2023/11/17 00:26:59;;;;;;;14.27;8.07;;;;;;;8.44;62.36;94628.38;4204050;28;20054;-67
2023/11/17 00:29:01;;;;;;;10.45;7.28;;;;;;;8.46;62.01;94629.06;4200763;28;20044;-68
2023/11/17 00:31:07;;;;;;;10.20;7.30;;;;;;;8.44;62.34;94622.34;4212873;28;20093;-69
2023/11/17 00:33:08;;;;;;;11.13;7.45;;;;;;;8.39;61.73;94623.56;4207278;28;20135;-69
2023/11/17 00:35:11;;;;;;;13.27;7.10;;;;;;;8.32;61.66;94621.69;4206170;28;20499;-69
2023/11/17 00:37:13;;;;;;;11.60;7.30;;;;;;;7.85;62.91;94627.88;4204850;28;20055;-69
2023/11/17 00:39:17;;;;;;;7.93;6.45;;;;;;;7.52;63.39;94627.41;4211085;28;20441;-68
2023/11/17 00:41:18;;;;;;;9.45;6.40;;;;;;;7.47;64.73;94624.41;4204355;28;20056;-67
2023/11/17 00:43:31;;;;;;;9.90;6.72;;;;;;;7.49;64.85;94625.09;4206387;28;20045;-68
2023/11/17 00:45:33;;;;;;;11.23;6.80;;;;;;;7.61;64.64;94620.53;4212387;28;20498;-71
2023/11/17 00:47:35;;;;;;;12.75;7.43;;;;;;;7.76;64.52;94615.66;4211968;28;20499;-67
2023/11/17 00:49:38;;;;;;;12.90;6.50;;;;;;;7.70;64.29;94614.47;4203492;28;20639;-68
2023/11/17 00:51:41;;;;;;;8.25;6.10;;;;;;;7.63;64.19;94621.19;4209663;28;20131;-70
2023/11/17 00:53:43;;;;;;;9.95;6.75;;;;;;;7.72;64.63;94616.91;4210409;28;20071;-70
2023/11/17 00:55:46;;;;;;;11.75;5.80;;;;;;;7.79;63.94;94610.19;4208163;28;20085;-69
2023/11/17 00:57:48;;;;;;;9.65;6.25;;;;;;;7.78;63.91;94627.59;4196028;28;20080;-70
2023/11/17 00:59:50;;;;;;;9.10;6.28;;;;;;;7.73;64.07;94631.59;4205680;28;20056;-70
2023/11/17 01:01:52;;;;;;;7.13;5.40;;;;;;;7.72;64.39;94625.59;4210504;28;20087;-70
2023/11/17 01:03:54;;;;;;;7.88;6.15;;;;;;;7.50;64.76;94615.50;4194413;28;20044;-69
2023/11/17 01:05:55;;;;;;;13.40;5.90;;;;;;;7.51;65.25;94609.34;4210541;28;20048;-68
2023/11/17 01:08:01;;;;;;;11.27;6.65;;;;;;;7.53;64.91;94605.59;4212510;28;20051;-69
2023/11/17 01:10:05;;;;;;;10.77;6.97;;;;;;;7.51;64.68;94615.34;4211275;28;20063;-69
2023/11/17 01:12:07;;;;;;;22.30;13.40;;;;;;;7.31;66.12;94617.22;4203626;28;20678;-68
2023/11/17 01:14:09;;;;;;;26.15;16.73;;;;;;;6.80;68.32;94613.16;4203638;28;20090;-68
2023/11/17 01:16:11;;;;;;;27.52;17.42;;;;;;;6.29;70.93;94598.63;4210755;28;20071;-68
2023/11/17 01:18:14;;;;;;;26.80;16.83;;;;;;;6.36;70.84;94581.50;4212123;28;20449;-70
2023/11/17 01:20:16;;;;;;;27.58;17.40;;;;;;;6.51;70.68;94572.34;4209838;28;20052;-70
2023/11/17 01:22:18;;;;;;;23.08;17.10;;;;;;;6.69;70.41;94569.03;4207974;28;20040;-68
2023/11/17 01:24:21;;;;;;;26.70;16.42;;;;;;;6.87;69.31;94559.56;4191995;28;20053;-70
2023/11/17 01:26:24;;;;;;;28.00;17.67;;;;;;;6.92;68.88;94552.13;4207943;28;20048;-70
2023/11/17 01:28:26;;;;;;;25.17;16.67;;;;;;;7.03;68.71;94555.56;4211609;28;20048;-68
2023/11/17 01:30:30;;;;;;;29.88;18.38;;;;;;;7.06;68.36;94555.28;4202757;28;20539;-68
2023/11/17 01:32:32;;;;;;;27.88;17.73;;;;;;;6.89;67.97;94549.84;4210809;28;20468;-68
2023/11/17 01:34:34;;;;;;;27.50;17.92;;;;;;;6.79;68.89;94546.41;4204666;28;20094;-70
2023/11/17 01:36:36;;;;;;;27.25;18.42;;;;;;;6.65;69.70;94555.50;4200809;28;20817;-70
2023/11/17 01:38:39;;;;;;;28.92;18.50;;;;;;;6.47;70.35;94552.75;4206226;28;20068;-69
2023/11/17 01:40:56;;;;;;;24.02;17.48;;;;;;;6.38;70.42;94558.78;4209025;28;20131;-68
2023/11/17 01:43:05;;;;;;;27.52;18.92;;;;;;;5.70;72.31;94572.47;4197989;28;20083;-69
2023/11/17 01:45:09;;;;;;;32.00;19.95;;;;;;;5.46;73.36;94569.38;4189267;28;20048;-68
2023/11/17 01:47:11;;;;;;;33.22;21.38;;;;;;;5.53;74.00;94578.31;4209376;28;20555;-69
2023/11/17 01:49:13;;;;;;;28.83;19.65;;;;;;;5.60;73.91;94560.41;4190699;28;20159;-68
2023/11/17 01:51:15;;;;;;;29.27;21.00;;;;;;;5.80;73.91;94551.69;4203315;28;20087;-66
2023/11/17 01:53:17;;;;;;;31.13;20.55;;;;;;;5.84;73.19;94542.69;4209700;28;20495;-68
2023/11/17 01:55:20;;;;;;;32.03;22.13;;;;;;;5.58;73.18;94547.53;4206420;28;20430;-68
2023/11/17 01:57:23;;;;;;;30.75;20.90;;;;;;;5.61;74.00;94547.25;4192612;28;20052;-68
2023/11/17 01:59:26;;;;;;;33.72;22.45;;;;;;;5.58;73.92;94557.94;4207057;28;20059;-68
2023/11/17 02:01:28;;;;;;;33.97;21.35;;;;;;;5.80;74.19;94550.88;4202532;28;20055;-71
2023/11/17 02:03:31;;;;;;;30.55;20.52;;;;;;;5.98;73.44;94544.13;4202542;28;20036;-72
2023/11/17 02:05:34;;;;;;;29.38;20.88;;;;;;;5.84;72.44;94539.25;4199364;28;20054;-68
2023/11/17 02:07:58;;;;;;;32.78;21.67;;;;;;;5.93;73.29;94541.03;4185129;28;20158;-68
2023/11/17 02:10:07;;;;;;;30.23;20.00;;;;;;;6.09;71.98;94535.38;4225829;28;20047;-68
2023/11/17 02:12:10;;;;;;;27.75;20.15;;;;;;;6.26;71.86;94532.09;4192013;28;20045;-71
2023/11/17 02:14:25;;;;;;;27.95;18.05;;;;;;;6.41;70.67;94516.88;4207635;28;20074;-69
2023/11/17 02:16:30;;;;;;;26.67;18.40;;;;;;;6.54;69.91;94525.22;4201632;28;20048;-68
2023/11/17 02:18:34;;;;;;;25.10;17.38;;;;;;;6.68;69.69;94513.56;4210511;28;20090;-70
2023/11/17 02:20:37;;;;;;;21.52;17.17;;;;;;;6.79;68.95;94509.97;4205649;28;20487;-68
2023/11/17 02:22:47;;;;;;;26.40;18.40;;;;;;;6.87;68.54;94504.88;4178562;28;20053;-67
2023/11/17 02:25:11;;;;;;;25.35;17.63;;;;;;;6.96;68.36;94504.03;4180337;28;20048;-68
2023/11/17 02:27:29;;;;;;;22.20;16.88;;;;;;;7.03;68.13;94491.25;4202100;28;20407;-68
2023/11/17 02:29:37;;;;;;;22.70;16.48;;;;;;;7.06;67.41;94498.00;4192549;28;20495;-71
2023/11/17 02:31:40;;;;;;;24.63;17.80;;;;;;;7.09;67.81;94495.91;4159476;28;20603;-69
2023/11/17 02:33:45;;;;;;;29.38;17.45;;;;;;;7.09;67.90;94492.47;4196497;28;20061;-69
2023/11/17 02:35:49;;;;;;;24.27;16.95;;;;;;;7.15;67.78;94474.50;4168581;28;20123;-68
2023/11/17 02:37:52;;;;;;;28.17;17.42;;;;;;;7.19;67.86;94469.81;4208746;28;20510;-69
2023/11/17 02:39:57;;;;;;;23.80;17.55;;;;;;;7.07;67.80;94473.56;4208147;28;20051;-69
2023/11/17 02:41:59;;;;;;;24.17;17.90;;;;;;;7.04;67.69;94469.47;4201105;28;20059;-69
2023/11/17 02:44:02;;;;;;;27.42;18.38;;;;;;;7.01;68.21;94450.69;4205601;28;20032;-67
2023/11/17 02:46:04;;;;;;;25.67;16.48;;;;;;;6.77;69.41;94462.41;4212619;28;20429;-70
2023/11/17 02:48:08;;;;;;;22.65;16.55;;;;;;;6.69;69.16;94460.53;4195309;28;20052;-68
2023/11/17 02:50:31;;;;;;;27.05;17.33;;;;;;;6.77;69.60;94444.19;4208875;28;20123;-67
2023/11/17 02:52:47;;;;;;;25.38;17.55;;;;;;;6.81;69.29;94442.94;4192194;28;20098;-67
2023/11/17 02:54:50;;;;;;;26.90;16.67;;;;;;;6.83;69.07;94451.44;4190714;28;20467;-67
2023/11/17 02:56:53;;;;;;;24.57;17.17;;;;;;;6.88;68.94;94433.63;4169851;28;20551;-71
2023/11/17 02:58:55;;;;;;;22.92;16.90;;;;;;;6.71;68.83;94444.75;4189993;28;20076;-69
2023/11/17 03:00:58;;;;;;;24.30;16.88;;;;;;;6.74;69.55;94449.69;4184760;28;20071;-70
2023/11/17 03:03:00;;;;;;;27.55;17.00;;;;;;;6.58;69.41;94408.63;4195847;28;20139;-70
2023/11/17 03:05:02;;;;;;;26.38;17.17;;;;;;;6.51;69.92;94415.38;4196062;28;20102;-69
2023/11/17 03:07:04;;;;;;;29.30;16.60;;;;;;;6.51;70.42;94420.56;4195409;28;20048;-69
2023/11/17 03:09:06;;;;;;;26.52;17.52;;;;;;;6.46;70.33;94392.38;4213350;28;20126;-67
2023/11/17 03:11:09;;;;;;;21.30;16.00;;;;;;;6.21;70.93;94406.00;4178402;28;20055;-69
2023/11/17 03:13:15;;;;;;;25.92;17.25;;;;;;;6.32;71.04;94414.47;4205346;28;20153;-69
2023/11/17 03:15:18;;;;;;;21.70;15.32;;;;;;;6.45;70.84;94411.53;4206512;28;20106;-70
2023/11/17 03:17:19;;;;;;;24.48;15.65;;;;;;;6.47;70.98;94412.22;4208155;28;20056;-68
2023/11/17 03:19:23;;;;;;;26.27;15.95;;;;;;;6.62;70.59;94402.19;4202100;28;20048;-66
2023/11/17 03:21:26;;;;;;;;;;;;;;;6.70;69.78;94412.72;4195144;28;20087;-68
2023/11/17 03:23:32;;;;;;;24.73;15.90;;;;;;;6.80;69.47;94409.25;4212588;28;19920;-69
2023/11/17 03:25:39;;;;;;;23.88;16.85;;;;;;;6.72;69.33;94408.19;4192930;28;20052;-69
2023/11/17 03:27:43;;;;;;;25.92;16.80;;;;;;;6.64;70.13;94420.25;4206201;28;20045;-71
2023/11/17 03:29:46;;;;;;;32.65;17.02;;;;;;;6.68;70.21;94406.00;4210092;28;20048;-68
2023/11/17 03:31:54;;;;;;;22.52;16.50;;;;;;;6.44;70.24;94383.91;4213193;28;20071;-69
2023/11/17 03:33:57;;;;;;;26.58;17.00;;;;;;;6.46;71.10;94392.38;4201983;28;20056;-68
2023/11/17 03:35:59;;;;;;;23.27;17.27;;;;;;;6.57;70.56;94397.41;4195523;28;20157;-70
2023/11/17 03:38:00;;;;;;;26.35;16.77;;;;;;;6.72;70.59;94394.34;4212337;28;20094;-68
2023/11/17 03:40:11;;;;;;;25.75;17.52;;;;;;;6.83;69.87;94381.16;4195420;28;20477;-69
2023/11/17 03:42:20;;;;;;;23.73;17.65;;;;;;;6.91;69.34;94375.22;4202419;28;20054;-69
2023/11/17 03:44:27;;;;;;;23.40;17.60;;;;;;;6.88;69.16;94375.50;4205261;28;20048;-69
2023/11/17 03:46:29;;;;;;;27.00;17.17;;;;;;;6.90;69.29;94378.78;4207708;28;20075;-69
2023/11/17 03:48:31;;;;;;;23.50;16.77;;;;;;;6.89;69.03;94370.16;4208763;28;20047;-69
2023/11/17 03:50:33;;;;;;;23.80;16.25;;;;;;;6.82;69.53;94353.47;4192767;28;20083;-68
2023/11/17 03:52:35;;;;;;;21.77;16.52;;;;;;;6.80;69.68;94360.63;4210363;28;20051;-68
2023/11/17 03:54:40;;;;;;;22.98;16.65;;;;;;;6.80;69.58;94381.44;4205886;28;20051;-69
2023/11/17 03:56:44;;;;;;;22.77;17.43;;;;;;;6.82;69.45;94371.72;4193611;28;20076;-69
2023/11/17 03:58:47;;;;;;;27.27;17.77;;;;;;;6.28;71.01;94370.63;4208948;28;20296;-69
2023/11/17 04:00:49;;;;;;;26.08;17.20;;;;;;;6.31;71.67;94389.41;4210618;28;20051;-70
2023/11/17 04:02:52;;;;;;;23.13;17.65;;;;;;;6.38;71.22;94363.63;4211711;28;20465;-69
2023/11/17 04:04:55;;;;;;;26.70;16.42;;;;;;;6.34;71.02;94370.09;4207571;28;20105;-69
2023/11/17 04:06:57;;;;;;;23.92;17.17;;;;;;;6.24;71.22;94390.09;4213318;28;20481;-72
2023/11/17 04:09:00;;;;;;;26.92;17.42;;;;;;;6.22;71.31;94400.66;4210631;28;20105;-71
2023/11/17 04:11:03;;;;;;;30.75;19.17;;;;;;;6.15;70.85;94382.19;4188704;28;20221;-70
2023/11/17 04:13:05;;;;;;;30.58;19.38;;;;;;;5.85;72.13;94353.72;4212408;28;20071;-69
2023/11/17 04:15:09;;;;;;;23.95;18.13;;;;;;;5.81;72.95;94371.38;4213066;28;20457;-70
2023/11/17 04:17:15;;;;;;;28.92;17.80;;;;;;;5.90;73.19;94380.13;4201621;28;20105;-69
2023/11/17 04:19:20;;;;;;;26.38;18.70;;;;;;;5.95;72.34;94372.75;4195122;28;20044;-68
2023/11/17 04:21:23;;;;;;;25.75;18.38;;;;;;;5.86;72.71;94377.00;4208978;28;20051;-69
2023/11/17 04:23:25;;;;;;;26.67;18.33;;;;;;;5.97;72.80;94377.84;4193456;28;20127;-69
2023/11/17 04:25:28;;;;;;;26.38;17.70;;;;;;;6.10;72.19;94370.56;4212394;28;20497;-69
2023/11/17 04:27:30;;;;;;;25.23;17.92;;;;;;;6.07;71.58;94369.06;4209772;28;20048;-68
2023/11/17 04:29:32;;;;;;;26.17;17.88;;;;;;;6.08;71.42;94367.28;4212801;28;20552;-69
2023/11/17 04:31:34;;;;;;;25.02;17.15;;;;;;;6.19;71.48;94368.91;4208999;28;20059;-71
2023/11/17 04:33:36;;;;;;;24.25;16.67;;;;;;;6.27;71.13;94369.84;4189202;28;20127;-71
2023/11/17 04:35:39;;;;;;;23.98;17.48;;;;;;;6.35;70.35;94364.75;4213180;28;20602;-71
2023/11/17 04:37:40;;;;;;;24.15;16.98;;;;;;;6.42;70.54;94370.19;4178058;28;20056;-71
2023/11/17 04:39:43;;;;;;;22.10;16.58;;;;;;;6.47;70.32;94367.97;4210034;28;20478;-72
2023/11/17 04:41:49;;;;;;;23.23;16.77;;;;;;;6.52;69.90;94364.97;4202840;28;20051;-71
2023/11/17 04:43:51;;;;;;;24.20;17.05;;;;;;;6.52;70.27;94371.00;4212150;28;20036;-70
2023/11/17 04:45:54;;;;;;;24.88;16.58;;;;;;;6.52;69.78;94380.59;4207247;28;20136;-70
2023/11/17 04:47:56;;;;;;;23.83;17.38;;;;;;;6.57;69.50;94373.16;4209995;28;20039;-69
2023/11/17 04:49:58;;;;;;;20.20;15.73;;;;;;;6.65;69.53;94383.69;4201374;28;20060;-69
2023/11/17 04:52:01;;;;;;;25.40;16.90;;;;;;;6.68;69.25;94366.97;4208718;28;20052;-70
2023/11/17 04:54:03;;;;;;;28.52;17.23;;;;;;;6.72;69.67;94363.13;4206096;28;20068;-68
2023/11/17 04:56:07;;;;;;;25.20;17.25;;;;;;;6.69;69.27;94368.59;4211410;28;20080;-68
2023/11/17 04:58:09;;;;;;;23.33;16.38;;;;;;;6.73;69.03;94369.94;4203337;28;20056;-69
2023/11/17 05:00:13;;;;;;;21.60;16.20;;;;;;;6.76;69.27;94372.28;4200242;28;20052;-70
2023/11/17 05:02:15;;;;;;;24.65;16.38;;;;;;;6.76;69.46;94375.69;4212385;28;20074;-69
2023/11/17 05:04:17;;;;;;;23.52;16.77;;;;;;;6.82;68.94;94363.91;4194220;28;20044;-70
2023/11/17 05:06:24;;;;;;;21.67;15.60;;;;;;;6.83;68.86;94355.09;4193802;28;20040;-70
2023/11/17 05:08:28;;;;;;;27.70;16.73;;;;;;;6.46;69.70;94366.34;4192715;28;20060;-70
2023/11/17 05:10:30;;;;;;;24.15;17.17;;;;;;;6.20;70.90;94367.94;4201059;28;20383;-71
2023/11/17 05:12:33;;;;;;;26.23;17.27;;;;;;;6.25;71.41;94363.94;4210919;28;20043;-69
2023/11/17 05:14:36;;;;;;;25.23;16.48;;;;;;;6.33;71.20;94351.06;4210976;28;20052;-70
2023/11/17 05:16:40;;;;;;;23.77;16.70;;;;;;;6.44;70.92;94360.47;4204407;28;20052;-70
2023/11/17 05:18:47;;;;;;;;;;;;;;;6.59;71.04;94362.63;4178911;28;20431;-70
2023/11/17 05:20:49;;;;;;;24.60;17.02;;;;;;;6.71;70.53;94354.50;4207895;28;19930;-71
2023/11/17 05:22:52;;;;;;;27.48;16.95;;;;;;;6.75;69.98;94349.78;4210794;28;20135;-70
2023/11/17 05:24:54;;;;;;;23.05;17.38;;;;;;;6.78;69.79;94341.72;4210903;28;20522;-70
2023/11/17 05:26:56;;;;;;;24.23;16.98;;;;;;;6.80;69.81;94333.75;4210786;28;20050;-71
2023/11/17 05:28:57;;;;;;;24.83;16.17;;;;;;;6.87;70.02;94320.00;4213037;28;20469;-72
2023/11/17 05:31:02;;;;;;;28.08;17.48;;;;;;;6.95;69.61;94322.72;4212408;28;20179;-70
2023/11/17 05:33:05;;;;;;;26.02;16.50;;;;;;;7.06;69.59;94326.88;4209448;28;20048;-71
2023/11/17 05:35:07;;;;;;;25.17;17.55;;;;;;;7.12;68.67;94320.25;4212012;28;20090;-69
2023/11/17 05:37:09;;;;;;;24.17;16.52;;;;;;;7.14;68.85;94326.13;4210760;28;20118;-71
2023/11/17 05:39:13;;;;;;;25.05;17.10;;;;;;;7.04;68.67;94305.38;4193837;28;20514;-69
2023/11/17 05:41:14;;;;;;;;;;;;;;;7.05;69.08;94312.22;4196104;28;20171;-70
2023/11/17 05:43:16;;;;;;;38.20;18.30;;;;;;;7.02;68.89;94293.47;4212322;28;20344;-71
2023/11/17 05:45:19;;;;;;;25.75;17.10;;;;;;;7.02;69.84;94312.53;4184281;28;20544;-70
2023/11/17 05:47:21;;;;;;;25.52;16.58;;;;;;;7.05;69.49;94303.59;4203078;28;20130;-69
2023/11/17 05:49:24;;;;;;;23.15;16.65;;;;;;;7.14;69.46;94297.47;4196195;28;20048;-70
2023/11/17 05:51:26;;;;;;;29.23;18.25;;;;;;;7.11;69.32;94293.41;4204483;28;20509;-71
2023/11/17 05:53:27;;;;;;;24.13;18.17;;;;;;;6.77;69.86;94316.63;4206741;28;20410;-70
2023/11/17 05:55:30;;;;;;;25.85;17.52;;;;;;;6.74;70.06;94322.13;4199633;28;20341;-69
2023/11/17 05:57:32;;;;;;;29.93;18.00;;;;;;;6.45;70.89;94311.84;4201535;28;20135;-70
2023/11/17 05:59:34;;;;;;;31.05;18.17;;;;;;;6.30;71.68;94312.34;4212180;28;20367;-72
2023/11/17 06:01:37;;;;;;;33.70;19.33;;;;;;;6.32;71.90;94317.38;4205262;28;20048;-70
2023/11/17 06:03:39;;;;;;;33.40;18.47;;;;;;;6.11;72.65;94304.59;4201105;28;20135;-70
2023/11/17 06:05:41;;;;;;;24.17;16.92;;;;;;;6.01;72.83;94309.81;4211230;28;20054;-71
2023/11/17 06:07:43;;;;;;;29.98;18.02;;;;;;;6.18;72.97;94305.66;4208150;28;20047;-71
2023/11/17 06:09:45;;;;;;;29.67;17.83;;;;;;;6.34;72.03;94315.44;4193579;28;20053;-70
2023/11/17 06:11:48;;;;;;;31.02;17.92;;;;;;;6.50;71.52;94320.06;4190413;28;20128;-73
2023/11/17 06:13:50;;;;;;;29.83;18.50;;;;;;;6.45;70.89;94322.25;4186041;28;20435;-68
2023/11/17 06:15:52;;;;;;;33.20;18.77;;;;;;;6.25;70.90;94326.72;4210594;28;20079;-71
2023/11/17 06:17:55;;;;;;;30.80;18.63;;;;;;;6.18;71.58;94336.06;4211955;28;20058;-70
2023/11/17 06:20:00;;;;;;;24.73;18.42;;;;;;;6.30;71.81;94333.16;4194566;28;20477;-69
2023/11/17 06:22:03;;;;;;;28.00;18.00;;;;;;;6.45;71.27;94328.28;4178551;28;20094;-69
2023/11/17 06:24:05;;;;;;;31.77;19.30;;;;;;;6.43;70.38;94325.03;4215168;28;20048;-71
2023/11/17 06:26:08;;;;;;;29.25;18.38;;;;;;;6.40;70.79;94327.06;4194942;28;20110;-69
2023/11/17 06:28:10;;;;;;;27.17;18.73;;;;;;;5.89;71.54;94337.72;4210642;28;20056;-70
2023/11/17 06:30:12;;;;;;;27.83;19.00;;;;;;;5.84;72.31;94333.91;4214262;28;20048;-70
2023/11/17 06:32:15;;;;;;;26.63;19.77;;;;;;;5.99;72.65;94332.53;4193648;28;20083;-69
2023/11/17 06:34:17;;;;;;;23.70;18.20;;;;;;;6.26;72.45;94323.97;4213837;28;20040;-71
2023/11/17 06:36:19;;;;;;;28.25;17.15;;;;;;;6.55;71.75;94308.25;4190112;28;20051;-70
2023/11/17 06:38:21;;;;;;;26.85;18.13;;;;;;;6.84;70.75;94306.44;4214013;28;20138;-71
2023/11/17 06:40:25;;;;;;;26.35;19.10;;;;;;;7.05;69.81;94293.97;4215322;28;20044;-71
2023/11/17 06:42:29;;;;;;;28.55;18.85;;;;;;;7.16;69.58;94303.38;4208322;28;20055;-71
2023/11/17 06:44:31;;;;;;;25.10;18.42;;;;;;;7.32;68.62;94306.13;4208627;28;20166;-70
2023/11/17 06:46:32;;;;;;;28.13;19.85;;;;;;;7.14;68.13;94297.47;4194850;28;20049;-70
2023/11/17 06:48:37;;;;;;;31.48;19.20;;;;;;;7.13;68.46;94308.88;4185827;28;20052;-70
2023/11/17 06:50:40;;;;;;;27.27;19.05;;;;;;;7.24;68.55;94305.25;4193736;28;20048;-72
2023/11/17 06:52:51;;;;;;;29.98;19.48;;;;;;;7.21;68.35;94308.97;4203389;28;20101;-71
2023/11/17 06:54:54;;;;;;;25.95;18.60;;;;;;;7.24;68.97;94297.44;4196615;28;20045;-70
2023/11/17 06:56:57;;;;;;;32.67;22.80;;;;;;;6.73;70.29;94279.66;4211700;28;20070;-71
2023/11/17 06:58:59;;;;;;;31.92;21.55;;;;;;;6.87;70.51;94301.78;4212107;28;20056;-73
2023/11/17 07:01:01;;;;;;;24.27;19.75;;;;;;;6.88;70.13;94298.22;4194396;28;20088;-71
2023/11/17 07:03:03;;;;;;;30.48;18.70;;;;;;;6.63;71.06;94299.72;4196779;28;20106;-70
2023/11/17 07:05:10;;;;;;;28.90;20.20;;;;;;;6.63;71.17;94298.91;4215080;28;20048;-71
2023/11/17 07:07:12;;;;;;;31.30;18.55;;;;;;;6.55;70.88;94284.81;4214296;28;20058;-70
2023/11/17 07:09:17;;;;;;;25.90;19.00;;;;;;;6.54;71.47;94285.78;4211398;28;20102;-71
2023/11/17 07:11:19;;;;;;;21.65;15.48;;;;;;;6.21;71.64;94283.75;4210456;28;20070;-72
2023/11/17 07:13:22;;;;;;;23.67;15.68;;;;;;;6.06;72.07;94319.78;4207463;28;20474;-72
2023/11/17 07:15:25;;;;;;;;;;;;;;;6.08;73.25;94343.88;4212383;28;20108;-71
2023/11/17 07:17:28;;;;;;;28.85;17.42;;;;;;;6.27;72.89;94340.41;4211103;28;19919;-71
2023/11/17 07:19:32;;;;;;;23.02;16.80;;;;;;;6.43;72.32;94329.38;4211296;28;20075;-70
2023/11/17 07:21:39;;;;;;;20.75;16.25;;;;;;;6.59;71.55;94324.41;4210237;28;20053;-70
2023/11/17 07:23:44;;;;;;;27.42;17.35;;;;;;;6.77;71.24;94306.22;4209381;28;20055;-71
2023/11/17 07:25:45;;;;;;;24.08;15.85;;;;;;;6.92;70.31;94296.94;4177359;28;20064;-70
2023/11/17 07:27:48;;;;;;;25.58;15.98;;;;;;;7.10;69.76;94275.34;4203717;28;20044;-69
2023/11/17 07:29:52;;;;;;;24.15;16.95;;;;;;;7.26;68.34;94287.69;4195444;28;20086;-71
2023/11/17 07:31:54;;;;;;;20.73;16.02;;;;;;;7.39;68.69;94280.31;4213011;28;20048;-72
2023/11/17 07:33:56;;;;;;;22.63;15.07;;;;;;;7.50;68.18;94266.22;4213386;28;20048;-72
2023/11/17 07:35:59;;;;;;;20.08;15.45;;;;;;;7.56;67.77;94255.19;4207771;28;20506;-72
2023/11/17 07:38:02;;;;;;;19.55;14.50;;;;;;;7.71;67.31;94252.88;4202182;28;20059;-73
2023/11/17 07:40:09;;;;;;;18.25;14.30;;;;;;;7.81;67.16;94237.94;4196745;28;20127;-72
2023/11/17 07:42:13;;;;;;;20.83;14.65;;;;;;;7.98;66.36;94234.47;4210955;28;20048;-71
2023/11/17 07:44:15;;;;;;;17.35;13.30;;;;;;;8.24;66.23;94253.66;4212777;28;20080;-71
2023/11/17 07:46:18;;;;;;;18.20;13.18;;;;;;;8.46;64.52;94245.31;4195991;28;20446;-72
2023/11/17 07:48:20;;;;;;;20.20;12.25;;;;;;;8.63;63.49;94248.00;4194493;28;20045;-71
2023/11/17 07:50:22;;;;;;;15.90;12.35;;;;;;;8.33;63.31;94256.16;4210205;28;20506;-71
2023/11/17 07:52:24;;;;;;;17.25;12.00;;;;;;;8.31;63.42;94270.34;4212749;28;20058;-72
2023/11/17 07:54:26;;;;;;;18.70;12.48;;;;;;;8.21;64.51;94266.03;4206993;28;20122;-72
2023/11/17 07:56:29;;;;;;;19.48;12.30;;;;;;;8.15;65.25;94266.69;4211098;28;20060;-69
2023/11/17 07:58:32;;;;;;;23.73;13.70;;;;;;;8.21;65.11;94262.59;4210270;28;20048;-69
2023/11/17 08:00:34;;;;;;;16.17;12.35;;;;;;;8.25;65.08;94260.53;4212133;28;20101;-71
2023/11/17 08:02:37;;;;;;;19.83;13.15;;;;;;;8.24;65.54;94246.66;4209708;28;20139;-73
2023/11/17 08:04:42;;;;;;;16.52;12.70;;;;;;;8.28;64.77;94265.41;4211325;28;20048;-72
2023/11/17 08:06:44;;;;;;;16.23;11.27;;;;;;;8.34;64.69;94264.78;4202585;28;20542;-73
2023/11/17 08:08:53;;;;;;;22.90;13.20;;;;;;;8.39;64.66;94259.94;4203804;28;20114;-72
2023/11/17 08:10:55;;;;;;;27.38;12.73;;;;;;;8.39;64.18;94250.31;4206838;28;20074;-72
2023/11/17 08:12:59;;;;;;;15.10;12.15;;;;;;;8.46;64.56;94247.13;4209332;28;20048;-73
2023/11/17 08:15:04;;;;;;;18.17;11.80;;;;;;;8.49;64.42;94242.38;4214534;28;20036;-72
2023/11/17 08:17:07;;;;;;;21.02;12.65;;;;;;;8.43;65.26;94234.34;4204114;28;20154;-70
2023/11/17 08:19:09;;;;;;;14.57;12.27;;;;;;;8.36;65.79;94234.94;4208510;28;20052;-71
2023/11/17 08:21:25;;;;;;;28.33;16.17;;;;;;;7.93;65.56;94234.09;4205261;28;20059;-71
2023/11/17 08:23:33;;;;;;;17.88;12.88;;;;;;;7.70;67.37;94235.56;4211091;28;20083;-71
2023/11/17 08:25:36;;;;;;;21.83;15.18;;;;;;;7.61;67.95;94219.06;4207098;28;20052;-70
2023/11/17 08:27:39;;;;;;;18.50;13.10;;;;;;;7.68;68.85;94204.44;4209258;28;20537;-73
2023/11/17 08:29:42;;;;;;;18.90;12.55;;;;;;;7.07;69.54;94179.25;4213710;28;20087;-72
2023/11/17 08:31:44;;;;;;;18.67;14.07;;;;;;;6.97;71.46;94176.72;4211564;28;20041;-70
2023/11/17 08:33:46;;;;;;;18.25;12.77;;;;;;;7.18;71.58;94205.06;4193674;28;20280;-72
2023/11/17 08:35:48;;;;;;;18.23;12.63;;;;;;;7.46;71.85;94210.16;4212430;28;20130;-72
2023/11/17 08:37:52;;;;;;;16.83;13.00;;;;;;;7.64;70.24;94178.84;4213279;28;20461;-71
2023/11/17 08:39:55;;;;;;;18.98;13.48;;;;;;;7.67;70.89;94174.13;4211241;28;20087;-71
2023/11/17 08:41:57;;;;;;;72.55;17.98;;;;;;;7.76;69.84;94204.47;4211930;28;20100;-70
2023/11/17 08:44:00;;;;;;;22.43;15.23;;;;;;;8.02;69.95;94195.00;4192650;28;20479;-70
2023/11/17 08:46:02;;;;;;;24.63;16.10;;;;;;;8.15;69.28;94188.41;4194490;28;20281;-71
2023/11/17 08:48:07;;;;;;;21.25;17.65;;;;;;;8.39;68.38;94166.78;4195358;28;20044;-71
2023/11/17 08:50:10;;;;;;;25.20;22.60;;;;;;;8.43;68.06;94175.13;4200830;28;20056;-71
2023/11/17 08:52:13;;;;;;;28.67;24.23;;;;;;;8.42;68.30;94186.56;4196501;28;20055;-72
2023/11/17 08:54:18;;;;;;;27.13;21.60;;;;;;;8.34;68.89;94170.84;4205664;28;20052;-71
2023/11/17 08:56:22;;;;;;;27.35;22.58;;;;;;;7.96;69.39;94181.63;4193309;28;20063;-72
2023/11/17 08:58:23;;;;;;;27.08;20.27;;;;;;;7.89;70.27;94149.28;4191556;28;20048;-71
2023/11/17 09:00:25;;;;;;;26.20;19.77;;;;;;;7.91;70.38;94176.03;4210899;28;20055;-72
2023/11/17 09:02:29;;;;;;;25.92;20.00;;;;;;;8.34;70.55;94160.41;4193228;28;20503;-74
2023/11/17 09:04:33;;;;;;;24.92;18.75;;;;;;;8.88;70.01;94137.34;4210978;28;20154;-73
2023/11/17 09:06:38;;;;;;;25.17;14.70;;;;;;;9.25;66.72;94132.63;4198985;28;20114;-73
2023/11/17 09:08:42;;;;;;;20.55;15.32;;;;;;;9.36;65.78;94129.69;4197528;28;20769;-72
2023/11/17 09:10:44;;;;;;;18.38;13.15;;;;;;;9.36;64.39;94127.06;4204430;28;20040;-72
2023/11/17 09:12:49;;;;;;;19.67;13.88;;;;;;;9.50;64.49;94157.75;4190757;28;20052;-72
2023/11/17 09:14:54;;;;;;;23.70;14.60;;;;;;;9.81;63.35;94165.72;4193997;28;20110;-71
2023/11/17 09:16:56;;;;;;;19.67;14.38;;;;;;;9.66;62.61;94151.69;4193530;28;20478;-71
2023/11/17 09:18:59;;;;;;;18.17;12.95;;;;;;;9.17;64.63;94141.31;4210602;28;20139;-70
2023/11/17 09:21:05;;;;;;;17.90;12.23;;;;;;;9.26;64.19;94145.53;4211785;28;20062;-71
2023/11/17 09:23:07;;;;;;;17.77;11.65;;;;;;;9.19;63.48;94145.38;4193077;28;20535;-71
2023/11/17 09:25:15;;;;;;;14.60;11.25;;;;;;;9.13;63.97;94140.81;4194850;28;20042;-72
2023/11/17 09:27:17;;;;;;;17.05;12.52;;;;;;;9.29;64.97;94119.09;4210586;28;20126;-72
2023/11/17 09:29:20;;;;;;;16.02;12.35;;;;;;;9.63;64.52;94112.78;4211362;28;20150;-73
2023/11/17 09:31:23;;;;;;;16.63;13.10;;;;;;;9.73;63.71;94115.22;4211856;28;20060;-71
2023/11/17 09:33:25;;;;;;;17.77;12.90;;;;;;;9.42;64.72;94106.31;4206997;28;20052;-72
2023/11/17 09:35:28;;;;;;;18.55;12.18;;;;;;;9.29;63.59;94115.63;4206320;28;20815;-72
2023/11/17 09:37:31;;;;;;;19.42;13.27;;;;;;;9.07;64.74;94117.13;4194327;28;20053;-73